createdAt,value
2022-11-10T00:02:38.605Z,58.04
2022-11-10T00:05:24.478Z,58.46
2022-11-10T00:08:12.610Z,58.08
2022-11-10T00:10:59.066Z,58.53
2022-11-10T00:14:07.406Z,58.55
2022-11-10T00:17:04.372Z,58.88
2022-11-10T00:19:50.383Z,58.89
2022-11-10T00:22:37.751Z,59.24
2022-11-10T00:25:25.162Z,59.42
2022-11-10T00:28:10.646Z,59.31
2022-11-10T00:30:56.402Z,59.30
2022-11-10T00:33:44.581Z,59.25
2022-11-10T00:36:30.434Z,59.10
2022-11-10T00:39:16.012Z,59.06
2022-11-10T00:42:01.441Z,59.13
2022-11-10T00:44:46.899Z,59.12
2022-11-10T00:47:32.529Z,59.33
2022-11-10T00:50:18.126Z,59.35
2022-11-10T00:53:03.965Z,59.25
2022-11-10T00:55:49.647Z,59.24
2022-11-10T00:58:35.097Z,59.11
2022-11-10T01:01:24.431Z,59.19
2022-11-10T01:04:10.155Z,58.96
2022-11-10T01:06:55.539Z,59.23
2022-11-10T01:09:41.555Z,59.29
2022-11-10T01:12:30.876Z,59.00
2022-11-10T01:15:16.599Z,59.24
2022-11-10T01:18:02.181Z,59.10
2022-11-10T01:20:52.544Z,59.08
2022-11-10T01:23:38.196Z,58.82
2022-11-10T01:26:24.775Z,59.00
2022-11-10T01:29:10.261Z,58.73
2022-11-10T01:31:55.745Z,58.71
2022-11-10T01:34:41.233Z,58.65
2022-11-10T01:37:27.269Z,58.81
2022-11-10T01:40:13.959Z,59.13
2022-11-10T01:42:59.956Z,59.47
2022-11-10T01:46:13.306Z,59.27
2022-11-10T01:49:02.480Z,59.05
2022-11-10T01:51:57.719Z,58.98
2022-11-10T01:54:47.158Z,58.68
2022-11-10T01:57:33.145Z,58.63
2022-11-10T02:00:20.160Z,58.52
2022-11-10T02:03:40.179Z,58.44
2022-11-10T02:06:30.933Z,58.23
2022-11-10T02:09:18.204Z,58.07
2022-11-10T02:12:04.326Z,58.07
2022-11-10T02:14:49.935Z,58.35
2022-11-10T02:17:35.685Z,58.09
2022-11-10T02:20:22.366Z,57.77
2022-11-10T02:23:36.932Z,58.13
2022-11-10T02:26:26.578Z,58.04
2022-11-10T02:29:12.544Z,58.31
2022-11-10T02:31:58.219Z,58.01
2022-11-10T02:34:43.922Z,58.44
2022-11-10T02:37:29.380Z,58.33
2022-11-10T02:40:14.944Z,58.49
2022-11-10T02:43:00.419Z,58.77
2022-11-10T02:45:46.241Z,58.88
2022-11-10T02:48:31.885Z,58.63
2022-11-10T02:51:17.689Z,58.68
2022-11-10T02:54:03.374Z,58.65
2022-11-10T02:56:48.957Z,58.60
2022-11-10T02:59:34.545Z,58.73
2022-11-10T03:02:19.940Z,58.74
2022-11-10T03:05:05.825Z,58.81
2022-11-10T03:07:57.571Z,58.90
2022-11-10T03:10:43.003Z,59.02
2022-11-10T03:13:40.198Z,59.21
2022-11-10T03:16:34.171Z,59.31
2022-11-10T03:19:19.608Z,59.18
2022-11-10T03:22:05.313Z,59.13
2022-11-10T03:24:50.995Z,59.19
2022-11-10T03:27:36.477Z,59.02
2022-11-10T03:30:22.061Z,59.09
2022-11-10T03:33:07.629Z,58.90
2022-11-10T03:35:53.213Z,58.93
2022-11-10T03:38:38.842Z,59.11
2022-11-10T03:41:24.287Z,59.06
2022-11-10T03:44:09.865Z,59.17
2022-11-10T03:46:55.557Z,58.90
2022-11-10T03:49:40.929Z,58.82
2022-11-10T03:52:26.295Z,58.48
2022-11-10T03:55:16.312Z,58.36
2022-11-10T03:58:03.413Z,58.11
2022-11-10T04:00:48.873Z,57.97
2022-11-10T04:03:34.458Z,57.95
2022-11-10T04:06:39.018Z,57.81
2022-11-10T04:09:25.003Z,57.79
2022-11-10T04:12:28.580Z,57.71
2022-11-10T04:15:32.898Z,57.31
2022-11-10T04:18:21.777Z,56.99
2022-11-10T04:21:07.341Z,57.01
2022-11-10T04:23:52.833Z,56.81
2022-11-10T04:26:38.996Z,56.76
2022-11-10T04:29:24.925Z,56.75
2022-11-10T04:32:10.187Z,56.77
2022-11-10T04:34:55.768Z,56.52
2022-11-10T04:37:41.237Z,56.89
2022-11-10T04:40:26.611Z,56.90
2022-11-10T04:43:12.138Z,57.01
2022-11-10T04:45:57.950Z,56.60
2022-11-10T04:48:43.604Z,56.49
2022-11-10T04:51:39.304Z,56.39
2022-11-10T04:54:25.080Z,56.47
2022-11-10T04:57:10.510Z,56.38
2022-11-10T04:59:55.949Z,56.50
2022-11-10T05:02:41.376Z,56.58
2022-11-10T05:05:27.322Z,56.55
2022-11-10T05:08:13.386Z,56.47
2022-11-10T05:10:59.108Z,56.71
2022-11-10T05:13:45.957Z,56.94
2022-11-10T05:16:31.428Z,56.86
2022-11-10T05:19:17.216Z,57.08
2022-11-10T05:22:02.735Z,57.08
2022-11-10T05:24:48.138Z,56.90
2022-11-10T05:27:33.704Z,56.74
2022-11-10T05:30:19.312Z,56.58
2022-11-10T05:33:05.678Z,56.35
2022-11-10T05:35:51.981Z,56.20
2022-11-10T05:38:42.940Z,56.16
2022-11-10T05:41:29.358Z,56.33
2022-11-10T05:44:15.280Z,56.49
2022-11-10T05:47:00.949Z,56.60
2022-11-10T05:49:46.447Z,56.74
2022-11-10T05:52:31.940Z,56.90
2022-11-10T05:55:20.686Z,56.91
2022-11-10T05:58:06.603Z,57.26
2022-11-10T06:00:52.214Z,57.33
2022-11-10T06:03:38.143Z,57.17
2022-11-10T06:06:24.114Z,57.50
2022-11-10T06:09:10.237Z,57.25
2022-11-10T06:11:55.620Z,57.28
2022-11-10T06:14:41.095Z,57.46
2022-11-10T06:17:26.696Z,57.58
2022-11-10T06:20:14.401Z,57.61
2022-11-10T06:23:06.670Z,57.54
2022-11-10T06:25:52.249Z,57.60
2022-11-10T06:28:37.641Z,57.68
2022-11-10T06:31:23.403Z,57.67
2022-11-10T06:34:09.329Z,57.57
2022-11-10T06:36:55.114Z,57.36
2022-11-10T06:39:40.586Z,57.43
2022-11-10T06:42:26.126Z,57.17
2022-11-10T06:45:11.499Z,56.85
2022-11-10T06:48:06.906Z,56.54
2022-11-10T06:50:52.758Z,56.30
2022-11-10T06:53:38.233Z,56.34
2022-11-10T06:56:23.557Z,56.25
2022-11-10T06:59:08.976Z,56.13
2022-11-10T07:01:54.257Z,55.72
2022-11-10T07:04:39.671Z,55.47
2022-11-10T07:07:25.043Z,55.48
2022-11-10T07:10:10.979Z,55.11
2022-11-10T07:13:02.316Z,54.69
2022-11-10T07:15:48.620Z,54.44
2022-11-10T07:18:36.003Z,54.41
2022-11-10T07:21:21.692Z,54.41
2022-11-10T07:24:07.779Z,54.35
2022-11-10T07:26:53.065Z,54.12
2022-11-10T07:29:39.846Z,53.81
2022-11-10T07:32:25.566Z,53.97
2022-11-10T07:35:11.029Z,53.57
2022-11-10T07:37:58.145Z,53.27
2022-11-10T07:40:43.470Z,53.16
2022-11-10T07:43:28.988Z,52.71
2022-11-10T07:46:15.671Z,52.47
2022-11-10T07:49:01.606Z,52.33
2022-11-10T07:51:47.113Z,51.98
2022-11-10T07:54:32.561Z,51.43
2022-11-10T07:57:18.452Z,51.07
2022-11-10T08:00:04.602Z,51.43
2022-11-10T08:02:51.053Z,51.31
2022-11-10T08:05:37.057Z,50.93
2022-11-10T08:08:22.615Z,50.59
2022-11-10T08:11:08.001Z,50.33
2022-11-10T08:13:53.483Z,50.43
2022-11-10T08:16:39.377Z,50.14
2022-11-10T08:19:25.256Z,50.16
2022-11-10T08:22:10.948Z,50.52
2022-11-10T08:24:56.693Z,50.38
2022-11-10T08:27:42.330Z,50.41
2022-11-10T08:30:28.740Z,50.40
2022-11-10T08:33:17.396Z,50.47
2022-11-10T08:36:03.180Z,50.57
2022-11-10T08:38:48.675Z,50.38
2022-11-10T08:41:34.060Z,50.67
2022-11-10T08:44:21.019Z,50.33
2022-11-10T08:47:06.905Z,50.36
2022-11-10T08:49:52.347Z,50.13
2022-11-10T08:52:37.673Z,49.85
2022-11-10T08:55:23.894Z,50.19
2022-11-10T08:58:14.477Z,49.50
2022-11-10T09:00:59.901Z,49.69
2022-11-10T09:03:45.363Z,48.49
2022-11-10T09:06:31.084Z,49.02
2022-11-10T09:09:16.892Z,48.73
2022-11-10T09:12:02.513Z,48.49
2022-11-10T09:14:48.079Z,47.34
2022-11-10T09:17:33.370Z,46.95
2022-11-10T09:23:13.505Z,48.30
2022-11-10T09:25:59.010Z,48.40
2022-11-10T09:28:44.462Z,49.14
2022-11-10T09:31:30.012Z,49.50
2022-11-10T09:34:15.350Z,49.48
2022-11-10T09:37:00.833Z,49.10
2022-11-10T09:39:46.205Z,49.54
2022-11-10T09:42:39.549Z,49.16
2022-11-10T09:45:37.813Z,49.25
2022-11-10T09:48:29.960Z,49.10
2022-11-10T09:51:36.288Z,48.82
2022-11-10T09:54:39.545Z,49.04
2022-11-10T09:57:26.883Z,48.61
2022-11-10T10:00:18.208Z,48.05
2022-11-10T10:03:06.240Z,49.04
2022-11-10T10:06:10.325Z,48.58
2022-11-10T10:09:27.442Z,48.73
2022-11-10T10:12:35.423Z,48.64
2022-11-10T10:15:46.859Z,48.71
2022-11-10T10:18:32.141Z,48.54
2022-11-10T10:21:33.372Z,48.08
2022-11-10T10:24:22.421Z,48.80
2022-11-10T10:27:18.678Z,47.59
2022-11-10T10:30:15.021Z,46.86
2022-11-10T10:33:20.067Z,47.32
2022-11-10T10:36:15.492Z,46.63
2022-11-10T10:39:11.122Z,46.86
2022-11-10T10:41:57.264Z,46.99
2022-11-10T10:45:16.599Z,47.93
2022-11-10T10:48:02.306Z,46.88
2022-11-10T10:50:49.157Z,46.65
2022-11-10T10:53:47.607Z,45.94
2022-11-10T10:56:33.819Z,45.97
2022-11-10T10:59:22.746Z,45.33
2022-11-10T11:02:40.833Z,43.03
2022-11-10T11:05:26.639Z,43.13
2022-11-10T11:08:19.267Z,41.76
2022-11-10T11:11:11.299Z,39.96
2022-11-10T11:14:24.560Z,38.75
2022-11-10T11:17:21.209Z,38.65
2022-11-10T11:20:14.340Z,36.36
2022-11-10T11:23:27.145Z,36.83
2022-11-10T11:26:24.034Z,36.68
2022-11-10T11:29:32.846Z,36.17
2022-11-10T11:32:45.913Z,32.36
2022-11-10T11:35:46.567Z,32.50
2022-11-10T11:38:44.265Z,32.10
2022-11-10T11:42:40.713Z,30.89
2022-11-10T11:46:12.564Z,35.15
2022-11-10T11:49:18.623Z,38.54
2022-11-10T11:52:27.449Z,40.89
2022-11-10T11:55:42.636Z,37.41
2022-11-10T11:58:51.231Z,34.58
2022-11-10T12:02:02.855Z,35.49
2022-11-10T12:05:13.284Z,35.21
2022-11-10T12:08:36.609Z,34.14
2022-11-10T12:11:43.115Z,37.64
2022-11-10T12:14:52.388Z,33.87
2022-11-10T12:18:07.351Z,32.32
2022-11-10T12:21:29.012Z,33.62
2022-11-10T12:24:52.522Z,34.35
2022-11-10T12:27:49.727Z,33.70
2022-11-10T12:30:37.454Z,34.22
2022-11-10T12:34:03.848Z,36.78
2022-11-10T12:36:50.828Z,35.65
2022-11-10T12:39:56.063Z,34.83
2022-11-10T12:42:44.256Z,32.88
2022-11-10T12:45:36.758Z,32.03
2022-11-10T12:48:24.534Z,31.31
2022-11-10T12:51:39.433Z,32.43
2022-11-10T12:54:28.962Z,32.29
2022-11-10T12:57:30.600Z,33.31
2022-11-10T13:00:28.833Z,34.18
2022-11-10T13:03:34.642Z,31.63
2022-11-10T13:06:29.108Z,31.29
2022-11-10T13:09:36.264Z,29.70
2022-11-10T13:12:24.502Z,28.95
2022-11-10T13:15:39.134Z,29.10
2022-11-10T13:18:44.975Z,32.41
2022-11-10T13:21:52.898Z,33.44
2022-11-10T13:24:42.567Z,33.88
2022-11-10T13:27:52.731Z,35.47
2022-11-10T13:30:45.552Z,36.30
2022-11-10T13:33:36.794Z,37.01
2022-11-10T13:36:48.845Z,37.35
2022-11-10T13:39:34.911Z,35.54
2022-11-10T13:42:25.061Z,34.25
2022-11-10T13:45:35.110Z,34.74
2022-11-10T13:48:57.481Z,33.78
2022-11-10T13:52:06.501Z,33.57
2022-11-10T13:55:20.389Z,31.97
2022-11-10T13:58:13.066Z,32.61
2022-11-10T14:01:26.141Z,33.55
2022-11-10T14:04:45.218Z,32.27
2022-11-10T14:07:39.797Z,32.71
2022-11-10T14:10:52.056Z,33.58
2022-11-10T14:14:00.811Z,37.40
2022-11-10T14:16:46.671Z,38.65
2022-11-10T14:19:40.306Z,40.26
2022-11-10T14:22:42.487Z,40.67
2022-11-10T14:25:40.024Z,41.89
2022-11-10T14:28:34.923Z,42.18
2022-11-10T14:31:25.306Z,42.65
2022-11-10T14:34:16.706Z,42.67
2022-11-10T14:37:03.886Z,43.32
2022-11-10T14:39:53.358Z,43.90
2022-11-10T14:42:39.757Z,44.14
2022-11-10T14:45:28.375Z,45.21
2022-11-10T14:48:22.008Z,45.34
2022-11-10T14:51:19.447Z,46.22
2022-11-10T14:54:07.284Z,46.54
2022-11-10T14:56:54.593Z,46.53
2022-11-10T14:59:40.691Z,46.77
2022-11-10T15:02:27.409Z,47.07
2022-11-10T15:05:15.732Z,47.45
2022-11-10T15:08:03.341Z,47.79
2022-11-10T15:10:53.179Z,47.80
2022-11-10T15:13:39.899Z,48.03
2022-11-10T15:16:32.726Z,48.09
2022-11-10T15:19:32.677Z,48.24
2022-11-10T15:22:21.696Z,48.45
2022-11-10T15:25:16.096Z,49.02
2022-11-10T15:28:26.891Z,48.84
2022-11-10T15:31:23.438Z,49.24
2022-11-10T15:34:41.702Z,49.42
2022-11-10T15:37:31.010Z,49.43
2022-11-10T15:40:36.646Z,49.92
2022-11-10T15:43:23.645Z,50.19
2022-11-10T15:46:18.604Z,50.21
2022-11-10T15:49:10.773Z,50.25
2022-11-10T15:52:06.964Z,50.45
2022-11-10T15:54:52.730Z,50.43
2022-11-10T15:57:38.449Z,50.77
2022-11-10T16:00:24.169Z,50.74
2022-11-10T16:03:15.570Z,50.81
2022-11-10T16:06:01.518Z,50.96
2022-11-10T16:08:47.344Z,51.22
2022-11-10T16:11:35.687Z,51.15
2022-11-10T16:14:21.210Z,51.48
2022-11-10T16:17:09.906Z,51.44
2022-11-10T16:19:57.033Z,51.46
2022-11-10T16:22:42.900Z,51.57
2022-11-10T16:25:28.799Z,51.42
2022-11-10T16:28:22.462Z,51.61
2022-11-10T16:31:11.652Z,51.80
2022-11-10T16:33:57.515Z,51.66
2022-11-10T16:36:46.093Z,51.69
2022-11-10T16:39:32.130Z,51.58
2022-11-10T16:42:18.107Z,51.57
2022-11-10T16:45:05.438Z,51.75
2022-11-10T16:47:53.394Z,51.37
2022-11-10T16:50:39.313Z,51.49
2022-11-10T16:53:28.373Z,51.30
2022-11-10T16:56:20.612Z,51.48
2022-11-10T16:59:06.602Z,51.53
2022-11-10T17:01:54.288Z,51.39
2022-11-10T17:04:40.288Z,51.51
2022-11-10T17:07:28.502Z,51.55
2022-11-10T17:10:20.058Z,51.52
2022-11-10T17:13:05.729Z,51.78
2022-11-10T17:15:56.042Z,51.53
2022-11-10T17:18:41.722Z,51.62
2022-11-10T17:21:32.638Z,51.49
2022-11-10T17:24:19.179Z,51.57
2022-11-10T17:27:05.264Z,51.91
2022-11-10T17:29:51.435Z,51.79
2022-11-10T17:33:03.019Z,51.93
2022-11-10T17:35:48.630Z,52.10
2022-11-10T17:38:34.310Z,52.33
2022-11-10T17:41:20.321Z,52.50
2022-11-10T17:44:15.241Z,52.54
2022-11-10T17:47:01.161Z,52.54
2022-11-10T17:49:46.607Z,52.50
2022-11-10T17:52:32.196Z,52.62
2022-11-10T17:55:28.514Z,52.63
2022-11-10T17:58:18.200Z,52.69
2022-11-10T18:01:18.898Z,52.76
2022-11-10T18:04:04.605Z,52.78
2022-11-10T18:06:50.254Z,52.83
2022-11-10T18:09:36.117Z,52.74
2022-11-10T18:12:26.768Z,52.93
2022-11-10T18:15:15.869Z,52.99
2022-11-10T18:18:01.680Z,52.92
2022-11-10T18:20:47.258Z,52.87
2022-11-10T18:23:33.428Z,52.94
2022-11-10T18:26:19.081Z,52.96
2022-11-10T18:29:04.667Z,52.93
2022-11-10T18:31:50.143Z,53.11
2022-11-10T18:34:35.447Z,53.08
2022-11-10T18:37:21.158Z,52.85
2022-11-10T18:40:08.005Z,52.80
2022-11-10T18:42:59.894Z,52.98
2022-11-10T18:45:53.822Z,52.92
2022-11-10T18:48:40.702Z,52.82
2022-11-10T18:51:26.604Z,52.98
2022-11-10T18:54:12.890Z,52.64
2022-11-10T18:56:58.568Z,52.63
2022-11-10T18:59:44.111Z,52.46
2022-11-10T19:02:29.570Z,52.69
2022-11-10T19:05:15.097Z,52.56
2022-11-10T19:08:00.625Z,52.78
2022-11-10T19:10:46.542Z,52.47
2022-11-10T19:13:32.147Z,52.47
2022-11-10T19:16:19.163Z,52.69
2022-11-10T19:19:05.075Z,52.58
2022-11-10T19:21:50.472Z,52.59
2022-11-10T19:24:53.744Z,52.92
2022-11-10T19:27:41.820Z,52.73
2022-11-10T19:30:27.363Z,52.87
2022-11-10T19:33:12.940Z,52.79
2022-11-10T19:36:19.077Z,53.03
2022-11-10T19:39:04.514Z,53.00
2022-11-10T19:41:50.863Z,53.11
2022-11-10T19:44:36.484Z,53.09
2022-11-10T19:47:22.127Z,53.15
2022-11-10T19:50:08.200Z,52.98
2022-11-10T19:52:54.050Z,53.16
2022-11-10T19:55:39.671Z,53.25
2022-11-10T19:58:28.656Z,53.31
2022-11-10T20:01:16.206Z,53.13
2022-11-10T20:04:02.956Z,53.34
2022-11-10T20:06:48.642Z,53.51
2022-11-10T20:09:34.421Z,53.50
2022-11-10T20:12:19.835Z,53.58
2022-11-10T20:15:09.045Z,53.65
2022-11-10T20:17:54.784Z,53.65
2022-11-10T20:20:41.115Z,53.65
2022-11-10T20:23:26.655Z,53.83
2022-11-10T20:26:17.527Z,53.97
2022-11-10T20:29:02.978Z,53.53
2022-11-10T20:31:48.854Z,53.63
2022-11-10T20:34:34.368Z,53.88
2022-11-10T20:37:20.014Z,53.75
2022-11-10T20:40:30.089Z,54.00
2022-11-10T20:43:14.944Z,54.28
2022-11-10T20:46:00.899Z,54.19
2022-11-10T20:48:47.496Z,54.17
2022-11-10T20:51:33.137Z,54.44
2022-11-10T20:54:18.804Z,54.81
2022-11-10T20:57:04.445Z,54.93
2022-11-10T20:59:49.862Z,55.21
2022-11-10T21:02:35.439Z,54.88
2022-11-10T21:05:21.064Z,54.97
2022-11-10T21:08:06.557Z,54.94
2022-11-10T21:10:58.102Z,54.84
2022-11-10T21:13:43.396Z,55.15
2022-11-10T21:16:28.943Z,55.30
2022-11-10T21:19:14.593Z,55.33
2022-11-10T21:22:00.632Z,55.36
2022-11-10T21:24:46.313Z,55.21
2022-11-10T21:27:31.863Z,55.33
2022-11-10T21:30:22.969Z,55.42
2022-11-10T21:33:09.436Z,55.22
2022-11-10T21:35:55.398Z,55.28
2022-11-10T21:38:42.356Z,55.29
2022-11-10T21:41:28.053Z,55.15
2022-11-10T21:44:13.798Z,55.02
2022-11-10T21:46:59.281Z,55.10
2022-11-10T21:49:51.068Z,55.07
2022-11-10T21:52:37.164Z,54.93
2022-11-10T21:55:22.867Z,54.87
2022-11-10T21:58:08.606Z,54.93
2022-11-10T22:01:10.546Z,54.86
2022-11-10T22:03:56.528Z,54.88
2022-11-10T22:07:00.403Z,55.40
2022-11-10T22:10:04.843Z,55.53
2022-11-10T22:13:09.469Z,55.29
2022-11-10T22:16:14.220Z,55.35
2022-11-10T22:18:59.782Z,55.40
2022-11-10T22:21:45.419Z,55.25
2022-11-10T22:24:30.957Z,55.13
2022-11-10T22:27:17.005Z,55.34
2022-11-10T22:30:02.412Z,55.10
2022-11-10T22:32:48.067Z,55.22
2022-11-10T22:35:43.211Z,55.43
2022-11-10T22:38:36.739Z,55.61
2022-11-10T22:41:41.638Z,55.62
2022-11-10T22:44:27.711Z,55.50
2022-11-10T22:47:13.200Z,55.39
2022-11-10T22:49:59.413Z,55.58
2022-11-10T22:52:45.189Z,55.89
2022-11-10T22:55:31.179Z,55.96
2022-11-10T22:58:16.763Z,55.96
2022-11-10T23:01:08.776Z,55.90
2022-11-10T23:03:58.300Z,55.73
2022-11-10T23:06:44.334Z,55.77
2022-11-10T23:09:30.254Z,55.71
2022-11-10T23:12:16.988Z,55.69
2022-11-10T23:15:02.444Z,55.63
2022-11-10T23:17:48.447Z,55.68
2022-11-10T23:20:33.994Z,55.58
2022-11-10T23:23:19.505Z,55.53
2022-11-10T23:26:14.785Z,55.40
2022-11-10T23:29:00.596Z,55.51
2022-11-10T23:31:46.092Z,55.57
2022-11-10T23:34:31.782Z,55.43
2022-11-10T23:37:17.834Z,55.38
2022-11-10T23:40:03.631Z,55.48
2022-11-10T23:42:49.441Z,55.39
2022-11-10T23:46:05.482Z,55.45
2022-11-10T23:48:43.606Z,55.80
2022-11-10T23:51:29.128Z,55.67
2022-11-10T23:54:14.670Z,55.97
2022-11-10T23:57:00.322Z,56.06
2022-11-10T23:59:45.945Z,56.22
